createdAt,value
2022-09-21T00:00:12.437Z,7.29
2022-09-21T00:01:12.494Z,7.3
2022-09-21T00:02:12.561Z,7.29
2022-09-21T00:03:12.536Z,7.27
2022-09-21T00:04:12.569Z,7.2
2022-09-21T00:05:12.614Z,7.21
2022-09-21T00:06:12.654Z,7.22
2022-09-21T00:07:12.688Z,7.24
2022-09-21T00:08:12.719Z,7.32
2022-09-21T00:09:12.746Z,7.21
2022-09-21T00:10:12.785Z,7.2
2022-09-21T00:11:12.826Z,7.21
2022-09-21T00:12:12.861Z,7.21
2022-09-21T00:13:12.905Z,7.21
2022-09-21T00:14:12.951Z,7.21
2022-09-21T00:15:12.982Z,7.21
2022-09-21T00:16:13.076Z,7.21
2022-09-21T00:17:13.052Z,7.19
2022-09-21T00:18:13.087Z,7.18
2022-09-21T00:19:13.129Z,7.18
2022-09-21T00:20:13.167Z,7.18
2022-09-21T00:21:13.206Z,7.19
2022-09-21T00:22:13.246Z,7.11
2022-09-21T00:23:13.276Z,7.11
2022-09-21T00:24:13.315Z,7.11
2022-09-21T00:25:13.351Z,7.12
2022-09-21T00:26:13.377Z,7.05
2022-09-21T00:27:13.415Z,7.06
2022-09-21T00:28:13.452Z,7.07
2022-09-21T00:29:13.494Z,7.08
2022-09-21T00:30:13.529Z,7
2022-09-21T00:31:13.566Z,7.01
2022-09-21T00:32:13.605Z,7.01
2022-09-21T00:33:13.640Z,6.97
2022-09-21T00:34:13.672Z,6.95
2022-09-21T00:35:13.704Z,6.95
2022-09-21T00:36:13.750Z,6.96
2022-09-21T00:37:13.784Z,6.98
2022-09-21T00:38:13.818Z,6.93
2022-09-21T00:39:13.847Z,6.93
2022-09-21T00:40:13.899Z,6.91
2022-09-21T00:41:13.919Z,6.9
2022-09-21T00:42:13.964Z,6.84
2022-09-21T00:43:13.995Z,6.85
2022-09-21T00:44:14.037Z,6.87
2022-09-21T00:45:14.081Z,6.87
2022-09-21T00:46:14.107Z,6.8
2022-09-21T00:47:14.146Z,6.8
2022-09-21T00:48:14.180Z,6.8
2022-09-21T00:49:14.223Z,6.8
2022-09-21T00:50:14.260Z,6.79
2022-09-21T00:51:14.286Z,6.8
2022-09-21T00:52:14.335Z,6.72
2022-09-21T00:53:14.375Z,6.73
2022-09-21T00:54:14.419Z,6.73
2022-09-21T00:55:14.452Z,6.73
2022-09-21T00:56:14.492Z,6.74
2022-09-21T00:57:14.526Z,6.73
2022-09-21T00:58:14.572Z,6.73
2022-09-21T00:59:14.606Z,6.74
2022-09-21T01:00:14.641Z,6.68
2022-09-21T01:01:14.739Z,6.67
2022-09-21T01:02:14.763Z,6.67
2022-09-21T01:03:14.760Z,6.67
2022-09-21T01:04:14.797Z,6.6
2022-09-21T01:05:14.835Z,6.6
2022-09-21T01:06:14.867Z,6.6
2022-09-21T01:07:14.936Z,6.61
2022-09-21T01:08:14.940Z,6.62
2022-09-21T01:09:14.977Z,6.63
2022-09-21T01:10:15.017Z,6.64
2022-09-21T01:11:15.048Z,6.58
2022-09-21T01:12:15.089Z,6.58
2022-09-21T01:13:15.122Z,6.65
2022-09-21T01:14:15.161Z,6.65
2022-09-21T01:15:15.205Z,6.65
2022-09-21T01:16:15.295Z,6.66
2022-09-21T01:17:15.271Z,6.62
2022-09-21T01:18:15.294Z,6.67
2022-09-21T01:19:15.339Z,6.59
2022-09-21T01:20:15.375Z,6.57
2022-09-21T01:21:15.407Z,6.58
2022-09-21T01:22:15.444Z,6.6
2022-09-21T01:23:15.492Z,6.63
2022-09-21T01:24:15.515Z,6.65
2022-09-21T01:25:15.549Z,6.67
2022-09-21T01:26:15.583Z,6.68
2022-09-21T01:27:15.618Z,6.69
2022-09-21T01:28:15.649Z,6.67
2022-09-21T01:29:15.689Z,6.67
2022-09-21T01:30:15.721Z,6.65
2022-09-21T01:31:15.792Z,6.58
2022-09-21T01:32:15.799Z,6.63
2022-09-21T01:33:15.837Z,6.57
2022-09-21T01:34:15.876Z,6.57
2022-09-21T01:35:15.902Z,6.57
2022-09-21T01:36:15.939Z,6.57
2022-09-21T01:37:15.974Z,6.56
2022-09-21T01:38:16.015Z,6.54
2022-09-21T01:39:16.045Z,6.47
2022-09-21T01:40:16.121Z,6.55
2022-09-21T01:41:16.117Z,6.49
2022-09-21T01:42:16.151Z,6.48
2022-09-21T01:43:16.190Z,6.48
2022-09-21T01:44:16.229Z,6.48
2022-09-21T01:45:16.265Z,6.48
2022-09-21T01:46:16.303Z,6.46
2022-09-21T01:47:16.338Z,6.46
2022-09-21T01:48:16.375Z,6.46
2022-09-21T01:49:16.403Z,6.42
2022-09-21T01:50:16.442Z,6.5
2022-09-21T01:51:16.474Z,6.5
2022-09-21T01:52:16.513Z,6.42
2022-09-21T01:53:16.552Z,6.43
2022-09-21T01:54:16.594Z,6.45
2022-09-21T01:55:16.636Z,6.46
2022-09-21T01:56:16.669Z,6.45
2022-09-21T01:57:16.701Z,6.43
2022-09-21T01:58:16.733Z,6.44
2022-09-21T01:59:16.768Z,6.44
2022-09-21T02:00:16.805Z,6.39
2022-09-21T02:01:16.862Z,6.4
2022-09-21T02:02:16.940Z,6.41
2022-09-21T02:03:16.919Z,6.4
2022-09-21T02:04:16.950Z,6.39
2022-09-21T02:05:16.982Z,6.39
2022-09-21T02:06:17.011Z,6.39
2022-09-21T02:07:17.057Z,6.37
2022-09-21T02:08:17.088Z,6.36
2022-09-21T02:09:17.118Z,6.36
2022-09-21T02:10:17.153Z,6.36
2022-09-21T02:11:17.197Z,6.37
2022-09-21T02:12:19.320Z,6.38
2022-09-21T02:13:17.279Z,6.39
2022-09-21T02:14:17.316Z,6.39
2022-09-21T02:15:17.348Z,6.39
2022-09-21T02:16:17.585Z,6.37
2022-09-21T02:17:17.435Z,6.34
2022-09-21T02:18:17.474Z,6.34
2022-09-21T02:19:17.507Z,6.28
2022-09-21T02:20:17.546Z,6.27
2022-09-21T02:21:17.580Z,6.27
2022-09-21T02:22:17.627Z,6.29
2022-09-21T02:23:17.660Z,6.3
2022-09-21T02:24:17.704Z,6.31
2022-09-21T02:25:17.728Z,6.32
2022-09-21T02:26:17.766Z,6.33
2022-09-21T02:27:17.809Z,6.32
2022-09-21T02:28:17.849Z,6.32
2022-09-21T02:29:17.891Z,6.33
2022-09-21T02:30:17.935Z,6.34
2022-09-21T02:31:18.011Z,6.34
2022-09-21T02:32:18.015Z,6.36
2022-09-21T02:33:18.054Z,6.37
2022-09-21T02:34:18.098Z,6.37
2022-09-21T02:35:18.135Z,6.29
2022-09-21T02:36:18.176Z,6.28
2022-09-21T02:37:18.201Z,6.27
2022-09-21T02:38:18.241Z,6.33
2022-09-21T02:39:18.267Z,6.26
2022-09-21T02:40:18.355Z,6.24
2022-09-21T02:41:18.341Z,6.24
2022-09-21T02:42:18.379Z,6.23
2022-09-21T02:43:18.415Z,6.16
2022-09-21T02:44:18.448Z,6.16
2022-09-21T02:45:18.490Z,6.16
2022-09-21T02:46:18.570Z,6.16
2022-09-21T02:47:18.549Z,6.16
2022-09-21T02:48:18.590Z,6.17
2022-09-21T02:49:18.622Z,6.17
2022-09-21T02:50:18.658Z,6.16
2022-09-21T02:51:18.695Z,6.16
2022-09-21T02:52:18.733Z,6.09
2022-09-21T02:53:18.772Z,6.16
2022-09-21T02:54:18.814Z,6.16
2022-09-21T02:55:18.853Z,6.1
2022-09-21T02:56:18.883Z,6.1
2022-09-21T02:57:18.919Z,6.16
2022-09-21T02:58:18.955Z,6.16
2022-09-21T02:59:18.993Z,6.1
2022-09-21T03:00:19.040Z,6.09
2022-09-21T03:01:19.067Z,6.08
2022-09-21T03:02:19.111Z,6.01
2022-09-21T03:03:19.146Z,6.02
2022-09-21T03:04:19.182Z,6.02
2022-09-21T03:05:19.226Z,6.02
2022-09-21T03:06:19.260Z,6.02
2022-09-21T03:07:19.293Z,6.03
2022-09-21T03:08:19.331Z,6.03
2022-09-21T03:09:19.373Z,6.03
2022-09-21T03:10:19.407Z,6.04
2022-09-21T03:11:19.442Z,6.04
2022-09-21T03:12:19.476Z,6.04
2022-09-21T03:13:19.515Z,5.97
2022-09-21T03:14:19.557Z,5.96
2022-09-21T03:15:19.595Z,5.96
2022-09-21T03:16:19.657Z,5.96
2022-09-21T03:17:19.672Z,5.97
2022-09-21T03:18:19.712Z,5.97
2022-09-21T03:19:19.747Z,5.97
2022-09-21T03:20:19.792Z,5.97
2022-09-21T03:21:19.825Z,5.96
2022-09-21T03:22:19.859Z,5.97
2022-09-21T03:23:19.892Z,5.97
2022-09-21T03:24:19.935Z,5.97
2022-09-21T03:25:19.966Z,5.97
2022-09-21T03:26:20.003Z,5.9
2022-09-21T03:27:20.038Z,5.9
2022-09-21T03:28:20.077Z,5.9
2022-09-21T03:29:20.111Z,5.91
2022-09-21T03:30:20.157Z,5.93
2022-09-21T03:31:20.250Z,5.92
2022-09-21T03:32:20.223Z,5.9
2022-09-21T03:33:20.259Z,5.9
2022-09-21T03:34:20.291Z,5.91
2022-09-21T03:35:20.330Z,5.91
2022-09-21T03:36:20.361Z,5.91
2022-09-21T03:37:20.387Z,5.9
2022-09-21T03:38:20.419Z,5.91
2022-09-21T03:39:20.452Z,5.91
2022-09-21T03:40:20.563Z,5.9
2022-09-21T03:41:20.521Z,5.91
2022-09-21T03:42:20.560Z,5.92
2022-09-21T03:43:20.591Z,5.92
2022-09-21T03:44:20.620Z,5.93
2022-09-21T03:45:20.656Z,5.94
2022-09-21T03:46:20.756Z,5.94
2022-09-21T03:47:20.727Z,5.93
2022-09-21T03:48:20.764Z,5.93
2022-09-21T03:49:20.791Z,5.92
2022-09-21T03:50:20.831Z,5.85
2022-09-21T03:51:20.855Z,5.86
2022-09-21T03:52:20.884Z,5.87
2022-09-21T03:53:20.924Z,5.95
2022-09-21T03:54:20.957Z,5.96
2022-09-21T03:55:21.014Z,5.97
2022-09-21T03:56:21.048Z,5.98
2022-09-21T03:57:21.084Z,5.99
2022-09-21T03:58:21.126Z,6
2022-09-21T03:59:21.154Z,6
2022-09-21T04:00:21.188Z,5.97
2022-09-21T04:01:21.262Z,5.96
2022-09-21T04:02:21.301Z,5.88
2022-09-21T04:03:21.301Z,5.87
2022-09-21T04:04:21.332Z,5.87
2022-09-21T04:05:21.377Z,5.86
2022-09-21T04:06:21.417Z,5.86
2022-09-21T04:07:21.459Z,5.86
2022-09-21T04:08:21.499Z,5.86
2022-09-21T04:09:21.540Z,5.85
2022-09-21T04:10:21.579Z,5.85
2022-09-21T04:11:21.619Z,5.86
2022-09-21T04:12:21.655Z,5.87
2022-09-21T04:13:21.692Z,5.87
2022-09-21T04:14:21.727Z,5.87
2022-09-21T04:15:21.757Z,5.87
2022-09-21T04:16:21.791Z,5.88
2022-09-21T04:17:21.818Z,5.8
2022-09-21T04:18:21.854Z,5.79
2022-09-21T04:19:21.895Z,5.79
2022-09-21T04:20:21.934Z,5.77
2022-09-21T04:21:21.979Z,5.77
2022-09-21T04:22:22.016Z,5.76
2022-09-21T04:23:22.055Z,5.69
2022-09-21T04:24:22.092Z,5.7
2022-09-21T04:25:22.140Z,5.71
2022-09-21T04:26:22.175Z,5.71
2022-09-21T04:27:22.207Z,5.72
2022-09-21T04:28:22.244Z,5.72
2022-09-21T04:29:22.278Z,5.73
2022-09-21T04:30:22.322Z,5.73
2022-09-21T04:31:22.392Z,5.72
2022-09-21T04:32:22.398Z,5.79
2022-09-21T04:33:22.451Z,5.72
2022-09-21T04:34:22.463Z,5.71
2022-09-21T04:35:22.507Z,5.71
2022-09-21T04:36:22.553Z,5.72
2022-09-21T04:37:22.588Z,5.72
2022-09-21T04:38:22.628Z,5.72
2022-09-21T04:39:22.661Z,5.72
2022-09-21T04:40:22.740Z,5.72
2022-09-21T04:41:22.746Z,5.73
2022-09-21T04:42:22.782Z,5.73
2022-09-21T04:43:22.824Z,5.74
2022-09-21T04:44:22.857Z,5.75
2022-09-21T04:45:22.895Z,5.81
2022-09-21T04:46:23.048Z,5.81
2022-09-21T04:47:22.977Z,5.82
2022-09-21T04:48:23.007Z,5.82
2022-09-21T04:49:23.043Z,5.82
2022-09-21T04:50:23.073Z,5.82
2022-09-21T04:51:23.108Z,5.82
2022-09-21T04:52:23.149Z,5.81
2022-09-21T04:53:23.178Z,5.82
2022-09-21T04:54:23.216Z,5.82
2022-09-21T04:55:23.255Z,5.82
2022-09-21T04:56:23.293Z,5.83
2022-09-21T04:57:23.317Z,5.84
2022-09-21T04:58:24.621Z,5.84
2022-09-21T04:59:23.388Z,5.85
2022-09-21T05:00:23.428Z,5.85
2022-09-21T05:01:23.577Z,5.86
2022-09-21T05:02:23.496Z,5.93
2022-09-21T05:03:23.578Z,5.87
2022-09-21T05:04:23.569Z,5.94
2022-09-21T05:05:23.604Z,5.87
2022-09-21T05:06:23.636Z,5.94
2022-09-21T05:07:23.669Z,5.93
2022-09-21T05:08:23.705Z,5.93
2022-09-21T05:09:23.736Z,5.93
2022-09-21T05:10:23.774Z,5.93
2022-09-21T05:11:23.812Z,5.93
2022-09-21T05:12:23.847Z,5.93
2022-09-21T05:13:23.879Z,5.94
2022-09-21T05:14:23.913Z,5.94
2022-09-21T05:15:24.009Z,5.95
2022-09-21T05:16:23.972Z,6.01
2022-09-21T05:17:24.007Z,6.01
2022-09-21T05:18:24.040Z,6.01
2022-09-21T05:19:24.075Z,6.01
2022-09-21T05:20:24.107Z,6.02
2022-09-21T05:21:24.148Z,6.01
2022-09-21T05:22:24.194Z,6
2022-09-21T05:23:24.218Z,5.98
2022-09-21T05:24:24.251Z,5.97
2022-09-21T05:25:24.292Z,5.97
2022-09-21T05:26:24.327Z,5.96
2022-09-21T05:27:24.365Z,5.96
2022-09-21T05:28:24.384Z,5.96
2022-09-21T05:29:24.419Z,5.95
2022-09-21T05:30:24.593Z,5.96
2022-09-21T05:31:24.587Z,5.96
2022-09-21T05:32:24.535Z,5.96
2022-09-21T05:33:24.564Z,6.02
2022-09-21T05:34:24.606Z,6.02
2022-09-21T05:35:24.638Z,6.02
2022-09-21T05:36:24.670Z,6.02
2022-09-21T05:37:24.711Z,6.02
2022-09-21T05:38:24.745Z,6.02
2022-09-21T05:39:24.791Z,6.03
2022-09-21T05:40:24.900Z,6.1
2022-09-21T05:41:24.852Z,6.1
2022-09-21T05:42:24.890Z,6.12
2022-09-21T05:43:24.928Z,6.13
2022-09-21T05:44:24.962Z,6.21
2022-09-21T05:45:24.995Z,6.21
2022-09-21T05:46:25.058Z,6.29
2022-09-21T05:47:25.068Z,6.3
2022-09-21T05:48:25.099Z,6.29
2022-09-21T05:49:25.136Z,6.3
2022-09-21T05:50:25.169Z,6.37
2022-09-21T05:51:25.210Z,6.37
2022-09-21T05:52:25.244Z,6.43
2022-09-21T05:53:25.280Z,6.43
2022-09-21T05:54:25.315Z,6.5
2022-09-21T05:55:25.355Z,6.51
2022-09-21T05:56:25.381Z,6.59
2022-09-21T05:57:28.653Z,6.65
2022-09-21T05:58:25.459Z,6.71
2022-09-21T05:59:25.492Z,6.7
2022-09-21T06:00:25.524Z,6.76
2022-09-21T06:01:25.611Z,6.83
2022-09-21T06:02:25.691Z,6.89
2022-09-21T06:03:25.634Z,6.95
2022-09-21T06:04:25.671Z,7.01
2022-09-21T06:05:25.706Z,7.13
2022-09-21T06:06:25.737Z,7.2
2022-09-21T06:07:25.759Z,7.25
2022-09-21T06:08:25.797Z,7.3
2022-09-21T06:09:25.829Z,7.35
2022-09-21T06:10:25.863Z,7.41
2022-09-21T06:11:25.903Z,7.41
2022-09-21T06:12:25.932Z,7.46
2022-09-21T06:13:25.959Z,7.52
2022-09-21T06:14:26.000Z,7.58
2022-09-21T06:15:26.039Z,7.57
2022-09-21T06:16:26.134Z,7.62
2022-09-21T06:17:26.112Z,7.62
2022-09-21T06:18:26.139Z,7.67
2022-09-21T06:19:26.174Z,7.73
2022-09-21T06:20:26.214Z,7.72
2022-09-21T06:21:26.237Z,7.78
2022-09-21T06:22:26.266Z,7.85
2022-09-21T06:23:26.305Z,7.9
2022-09-21T06:24:26.347Z,7.9
2022-09-21T06:25:26.374Z,7.96
2022-09-21T06:26:26.413Z,8.02
2022-09-21T06:27:26.449Z,8.02
2022-09-21T06:28:26.489Z,8.07
2022-09-21T06:29:26.516Z,8.14
2022-09-21T06:30:26.583Z,8.13
2022-09-21T06:31:26.583Z,8.19
2022-09-21T06:32:26.616Z,8.19
2022-09-21T06:33:26.649Z,8.25
2022-09-21T06:34:26.684Z,8.3
2022-09-21T06:35:26.727Z,8.29
2022-09-21T06:36:26.763Z,8.29
2022-09-21T06:37:26.799Z,8.35
2022-09-21T06:38:26.840Z,8.37
2022-09-21T06:39:26.864Z,8.43
2022-09-21T06:40:27.032Z,8.43
2022-09-21T06:41:26.930Z,8.5
2022-09-21T06:42:26.968Z,8.49
2022-09-21T06:43:26.999Z,8.56
2022-09-21T06:44:27.034Z,8.56
2022-09-21T06:45:27.063Z,8.63
2022-09-21T06:46:27.094Z,8.7
2022-09-21T06:47:27.130Z,8.71
2022-09-21T06:48:27.170Z,8.78
2022-09-21T06:49:27.204Z,8.8
2022-09-21T06:50:27.296Z,8.87
2022-09-21T06:51:27.267Z,8.85
2022-09-21T06:52:27.299Z,8.83
2022-09-21T06:53:27.324Z,8.89
2022-09-21T06:54:27.363Z,8.89
2022-09-21T06:55:27.436Z,8.91
2022-09-21T06:56:27.421Z,8.9
2022-09-21T06:57:27.448Z,8.95
2022-09-21T06:58:27.481Z,8.95
2022-09-21T06:59:27.519Z,8.95
2022-09-21T07:00:27.541Z,9.01
2022-09-21T07:01:27.711Z,8.99
2022-09-21T07:02:27.607Z,8.98
2022-09-21T07:03:27.634Z,8.97
2022-09-21T07:04:27.669Z,8.92
2022-09-21T07:05:27.698Z,8.91
2022-09-21T07:06:27.729Z,8.9
2022-09-21T07:07:27.760Z,8.91
2022-09-21T07:10:27.859Z,8.9
2022-09-21T07:11:27.890Z,8.91
2022-09-21T07:12:27.928Z,8.91
2022-09-21T07:13:27.965Z,8.92
2022-09-21T07:14:27.999Z,8.99
2022-09-21T07:15:28.039Z,8.99
2022-09-21T07:16:28.167Z,8.99
2022-09-21T07:17:28.103Z,9.06
2022-09-21T07:18:28.142Z,9.06
2022-09-21T07:19:28.174Z,9.06
2022-09-21T07:20:28.214Z,9.13
2022-09-21T07:21:28.250Z,9.12
2022-09-21T07:22:28.288Z,9.17
2022-09-21T07:23:28.325Z,9.17
2022-09-21T07:24:28.354Z,9.23
2022-09-21T07:25:28.384Z,9.21
2022-09-21T07:26:28.415Z,9.28
2022-09-21T07:27:28.452Z,9.27
2022-09-21T07:28:28.489Z,9.33
2022-09-21T07:29:28.519Z,9.33
2022-09-21T07:30:28.566Z,9.33
2022-09-21T07:31:28.633Z,9.34
2022-09-21T07:32:28.627Z,9.4
2022-09-21T07:33:32.695Z,9.41
2022-09-21T07:34:28.692Z,9.47
2022-09-21T07:35:28.726Z,9.48
2022-09-21T07:36:28.763Z,9.48
2022-09-21T07:37:28.796Z,9.55
2022-09-21T07:38:28.827Z,9.55
2022-09-21T07:39:28.857Z,9.56
2022-09-21T07:40:29.017Z,9.56
2022-09-21T07:41:28.934Z,9.62
2022-09-21T07:42:28.956Z,9.63
2022-09-21T07:43:28.988Z,9.64
2022-09-21T07:44:29.027Z,9.63
2022-09-21T07:45:29.093Z,9.63
2022-09-21T07:46:29.086Z,9.63
2022-09-21T07:47:29.115Z,9.63
2022-09-21T07:48:29.152Z,9.64
2022-09-21T07:49:29.188Z,9.65
2022-09-21T07:50:29.217Z,9.65
2022-09-21T07:51:29.251Z,9.66
2022-09-21T07:52:29.286Z,9.66
2022-09-21T07:53:29.327Z,9.72
2022-09-21T07:54:29.339Z,9.72
2022-09-21T07:55:29.367Z,9.78
2022-09-21T07:56:29.388Z,9.84
2022-09-21T07:57:29.417Z,9.89
2022-09-21T07:58:29.449Z,9.97
2022-09-21T07:59:29.480Z,10.06
2022-09-21T08:00:29.513Z,10.12
2022-09-21T08:01:29.554Z,10.17
2022-09-21T08:02:29.634Z,10.22
2022-09-21T08:03:29.623Z,10.2
2022-09-21T08:04:29.655Z,10.25
2022-09-21T08:05:29.685Z,10.32
2022-09-21T08:06:29.723Z,10.38
2022-09-21T08:07:29.752Z,10.45
2022-09-21T08:08:29.792Z,10.5
2022-09-21T08:09:29.830Z,10.57
2022-09-21T08:10:29.858Z,10.65
2022-09-21T08:11:29.896Z,10.67
2022-09-21T08:12:29.926Z,10.74
2022-09-21T08:13:30.237Z,10.73
2022-09-21T08:14:29.980Z,10.7
2022-09-21T08:15:48.887Z,10.7
2022-09-21T08:16:30.107Z,10.7
2022-09-21T08:17:30.089Z,10.71
2022-09-21T08:18:30.122Z,10.73
2022-09-21T08:19:30.157Z,10.75
2022-09-21T08:20:30.191Z,10.7
2022-09-21T08:21:30.223Z,10.75
2022-09-21T08:22:30.256Z,10.74
2022-09-21T08:23:30.292Z,10.75
2022-09-21T08:24:30.325Z,10.76
2022-09-21T08:25:30.348Z,10.78
2022-09-21T08:26:30.372Z,10.79
2022-09-21T08:27:30.401Z,10.85
2022-09-21T08:28:30.434Z,10.86
2022-09-21T08:29:30.466Z,10.89
2022-09-21T08:30:30.494Z,10.91
2022-09-21T08:31:30.595Z,10.95
2022-09-21T08:32:50.063Z,10.93
2022-09-21T08:33:30.597Z,10.93
2022-09-21T08:34:30.634Z,10.94
2022-09-21T08:35:30.665Z,10.94
2022-09-21T08:36:30.689Z,11
2022-09-21T08:37:30.715Z,11.04
2022-09-21T08:38:30.740Z,11.04
2022-09-21T08:39:30.764Z,11.03
2022-09-21T08:40:30.822Z,11.1
2022-09-21T08:41:30.814Z,11.1
2022-09-21T08:42:30.843Z,11.18
2022-09-21T08:43:30.875Z,11.17
2022-09-21T08:44:30.915Z,11.22
2022-09-21T08:45:30.954Z,11.25
2022-09-21T08:46:31.094Z,11.33
2022-09-21T08:47:31.020Z,11.4
2022-09-21T08:48:35.877Z,11.44
2022-09-21T08:49:31.084Z,11.5
2022-09-21T08:50:31.113Z,11.61
2022-09-21T08:51:31.139Z,11.64
2022-09-21T08:52:31.164Z,11.68
2022-09-21T08:53:31.198Z,11.76
2022-09-21T08:54:31.229Z,11.78
2022-09-21T08:55:31.264Z,11.83
2022-09-21T08:56:47.399Z,11.89
2022-09-21T08:57:31.331Z,11.94
2022-09-21T08:58:31.368Z,11.93
2022-09-21T08:59:31.402Z,11.99
2022-09-21T09:00:31.464Z,11.97
2022-09-21T09:01:31.525Z,11.97
2022-09-21T09:02:31.506Z,11.94
2022-09-21T09:03:31.525Z,11.9
2022-09-21T09:04:31.557Z,11.88
2022-09-21T09:05:31.588Z,11.88
2022-09-21T09:06:31.612Z,11.88
2022-09-21T09:07:31.633Z,11.83
2022-09-21T09:08:31.669Z,11.82
2022-09-21T09:09:31.700Z,11.83
2022-09-21T09:10:31.738Z,11.78
2022-09-21T09:11:31.769Z,11.82
2022-09-21T09:12:31.848Z,11.82
2022-09-21T09:13:31.852Z,11.81
2022-09-21T09:14:31.884Z,11.8
2022-09-21T09:15:31.925Z,11.75
2022-09-21T09:16:32.032Z,11.75
2022-09-21T09:17:32.018Z,11.76
2022-09-21T09:18:32.036Z,11.84
2022-09-21T09:19:32.067Z,11.8
2022-09-21T09:20:32.100Z,11.8
2022-09-21T09:21:32.636Z,11.81
2022-09-21T09:22:32.174Z,11.82
2022-09-21T09:23:32.204Z,11.79
2022-09-21T09:24:32.266Z,11.82
2022-09-21T09:25:32.283Z,11.94
2022-09-21T09:26:32.315Z,11.96
2022-09-21T09:27:32.343Z,11.95
2022-09-21T09:28:32.368Z,11.95
2022-09-21T09:29:32.410Z,11.96
2022-09-21T09:30:32.440Z,11.98
2022-09-21T09:31:32.548Z,12.06
2022-09-21T09:32:32.510Z,12.08
2022-09-21T09:33:32.549Z,12.12
2022-09-21T09:34:32.578Z,12.12
2022-09-21T09:35:32.614Z,12.11
2022-09-21T09:36:56.868Z,12.1
2022-09-21T09:37:32.688Z,12.15
2022-09-21T09:38:32.725Z,12.13
2022-09-21T09:39:32.758Z,12.2
2022-09-21T09:40:32.829Z,12.19
2022-09-21T09:41:32.813Z,12.2
2022-09-21T09:42:32.845Z,12.17
2022-09-21T09:43:32.882Z,12.21
2022-09-21T09:44:32.916Z,12.17
2022-09-21T09:45:32.952Z,12.22
2022-09-21T09:46:33.017Z,12.31
2022-09-21T09:47:33.021Z,12.38
2022-09-21T09:48:33.051Z,12.52
2022-09-21T09:49:33.091Z,12.52
2022-09-21T09:50:33.116Z,12.62
2022-09-21T09:51:33.149Z,12.63
2022-09-21T09:52:33.185Z,12.65
2022-09-21T09:53:33.216Z,12.67
2022-09-21T09:54:33.250Z,12.71
2022-09-21T09:55:33.288Z,12.76
2022-09-21T09:56:33.317Z,12.81
2022-09-21T09:57:33.349Z,12.84
2022-09-21T09:58:33.381Z,12.9
2022-09-21T09:59:33.417Z,12.95
2022-09-21T10:00:33.449Z,12.97
2022-09-21T10:01:33.513Z,13.04
2022-09-21T10:02:33.520Z,13.06
2022-09-21T10:03:33.558Z,13.05
2022-09-21T10:04:33.670Z,13.03
2022-09-21T10:05:33.623Z,13.11
2022-09-21T10:06:33.661Z,13.12
2022-09-21T10:07:33.694Z,13.14
2022-09-21T10:08:33.730Z,13.17
2022-09-21T10:09:33.766Z,13.14
2022-09-21T10:10:33.794Z,13.17
2022-09-21T10:11:33.843Z,13.15
2022-09-21T10:12:33.873Z,13.14
2022-09-21T10:13:33.905Z,13.04
2022-09-21T10:14:33.938Z,12.91
2022-09-21T10:15:34.064Z,12.95
2022-09-21T10:16:34.008Z,13.01
2022-09-21T10:17:34.039Z,12.97
2022-09-21T10:18:34.073Z,12.93
2022-09-21T10:19:34.107Z,12.92
2022-09-21T10:20:34.138Z,12.91
2022-09-21T10:21:34.173Z,12.86
2022-09-21T10:22:34.212Z,12.92
2022-09-21T10:23:34.249Z,12.95
2022-09-21T10:24:34.286Z,12.93
2022-09-21T10:25:39.423Z,12.84
2022-09-21T10:26:34.347Z,12.86
2022-09-21T10:27:34.379Z,12.94
2022-09-21T10:28:34.413Z,12.88
2022-09-21T10:29:34.438Z,12.9
2022-09-21T10:30:34.474Z,12.84
2022-09-21T10:31:34.583Z,12.8
2022-09-21T10:32:34.538Z,12.89
2022-09-21T10:33:34.570Z,12.97
2022-09-21T10:34:34.604Z,12.99
2022-09-21T10:35:34.643Z,13
2022-09-21T10:36:34.667Z,12.98
2022-09-21T10:37:34.708Z,12.98
2022-09-21T10:38:34.737Z,12.96
2022-09-21T10:39:34.771Z,12.89
2022-09-21T10:40:34.839Z,12.91
2022-09-21T10:41:34.828Z,12.9
2022-09-21T10:42:34.862Z,12.87
2022-09-21T10:43:37.605Z,12.85
2022-09-21T10:44:34.925Z,12.86
2022-09-21T10:45:34.956Z,12.86
2022-09-21T10:46:35.049Z,12.8
2022-09-21T10:47:35.023Z,12.78
2022-09-21T10:48:35.041Z,12.81
2022-09-21T10:49:35.073Z,12.89
2022-09-21T10:50:35.104Z,12.91
2022-09-21T10:51:35.137Z,12.99
2022-09-21T10:52:35.177Z,12.99
2022-09-21T10:53:35.198Z,13.02
2022-09-21T10:54:35.230Z,13.06
2022-09-21T10:55:36.760Z,13.02
2022-09-21T10:56:35.298Z,13.04
2022-09-21T10:57:35.326Z,13.07
2022-09-21T10:58:35.358Z,13.02
2022-09-21T10:59:35.383Z,12.95
2022-09-21T11:00:35.405Z,12.96
2022-09-21T11:01:35.497Z,12.93
2022-09-21T11:02:35.493Z,12.85
2022-09-21T11:03:35.502Z,12.82
2022-09-21T11:04:35.536Z,12.84
2022-09-21T11:05:35.567Z,12.8
2022-09-21T11:06:35.601Z,12.81
2022-09-21T11:07:35.630Z,12.74
2022-09-21T11:08:35.656Z,12.77
2022-09-21T11:09:35.675Z,12.72
2022-09-21T11:10:35.708Z,12.65
2022-09-21T11:11:35.742Z,12.55
2022-09-21T11:12:35.769Z,12.59
2022-09-21T11:13:35.848Z,12.56
2022-09-21T11:14:35.830Z,12.61
2022-09-21T11:15:35.905Z,12.66
2022-09-21T11:16:35.890Z,12.66
2022-09-21T11:17:35.921Z,12.76
2022-09-21T11:18:35.948Z,12.77
2022-09-21T11:19:35.979Z,12.84
2022-09-21T11:20:36.002Z,12.96
2022-09-21T11:21:36.039Z,13.03
2022-09-21T11:22:36.071Z,13.06
2022-09-21T11:23:36.093Z,13.12
2022-09-21T11:24:36.125Z,13.12
2022-09-21T11:25:36.161Z,13.14
2022-09-21T11:26:36.230Z,13.22
2022-09-21T11:27:36.238Z,13.17
2022-09-21T11:28:36.248Z,13.23
2022-09-21T11:29:36.279Z,13.2
2022-09-21T11:30:36.373Z,13.11
2022-09-21T11:31:36.335Z,13.01
2022-09-21T11:32:36.366Z,12.94
2022-09-21T11:33:36.410Z,12.9
2022-09-21T11:34:36.445Z,12.77
2022-09-21T11:35:36.480Z,12.88
2022-09-21T11:36:36.519Z,12.85
2022-09-21T11:37:36.551Z,12.88
2022-09-21T11:38:38.725Z,12.83
2022-09-21T11:39:36.629Z,12.79
2022-09-21T11:40:36.695Z,12.79
2022-09-21T11:41:36.703Z,12.81
2022-09-21T11:42:36.731Z,12.8
2022-09-21T11:43:36.766Z,12.8
2022-09-21T11:44:36.795Z,12.8
2022-09-21T11:45:36.827Z,12.78
2022-09-21T11:46:36.911Z,12.77
2022-09-21T11:47:36.898Z,12.8
2022-09-21T11:48:36.931Z,12.91
2022-09-21T11:49:36.961Z,12.96
2022-09-21T11:50:36.998Z,12.9
2022-09-21T11:51:37.035Z,12.79
2022-09-21T11:52:37.073Z,12.82
2022-09-21T11:53:37.097Z,12.83
2022-09-21T11:54:37.125Z,12.74
2022-09-21T11:55:37.158Z,12.79
2022-09-21T11:56:37.191Z,12.73
2022-09-21T11:57:37.217Z,12.67
2022-09-21T11:58:37.256Z,12.68
2022-09-21T11:59:37.294Z,12.72
2022-09-21T12:00:37.328Z,12.8
2022-09-21T12:01:37.360Z,12.83
2022-09-21T12:02:37.575Z,12.67
2022-09-21T12:03:37.410Z,12.65
2022-09-21T12:04:37.446Z,12.63
2022-09-21T12:05:37.479Z,12.73
2022-09-21T12:06:37.515Z,12.64
2022-09-21T12:07:37.552Z,12.65
2022-09-21T12:08:37.585Z,12.74
2022-09-21T12:09:37.614Z,12.62
2022-09-21T12:10:37.649Z,12.68
2022-09-21T12:11:37.680Z,12.69
2022-09-21T12:12:37.712Z,12.66
2022-09-21T12:13:37.741Z,12.7
2022-09-21T12:15:37.784Z,12.88
2022-09-21T12:16:37.870Z,12.82
2022-09-21T12:17:37.850Z,12.86
2022-09-21T12:18:38.403Z,12.94
2022-09-21T12:19:37.911Z,12.87
2022-09-21T12:20:37.939Z,12.82
2022-09-21T12:21:38.025Z,12.9
2022-09-21T12:22:38.012Z,12.84
2022-09-21T12:23:38.040Z,12.81
2022-09-21T12:24:38.069Z,12.79
2022-09-21T12:25:38.104Z,12.7
2022-09-21T12:26:38.127Z,12.72
2022-09-21T12:27:38.155Z,12.69
2022-09-21T12:28:38.195Z,12.67
2022-09-21T12:29:38.240Z,12.61
2022-09-21T12:30:38.323Z,12.52
2022-09-21T12:31:38.297Z,12.54
2022-09-21T12:32:38.331Z,12.5
2022-09-21T12:33:38.364Z,12.5
2022-09-21T12:34:38.395Z,12.44
2022-09-21T12:35:38.500Z,12.45
2022-09-21T12:36:41.136Z,12.32
2022-09-21T12:37:38.495Z,12.27
2022-09-21T12:38:38.523Z,12.31
2022-09-21T12:39:38.543Z,12.3
2022-09-21T12:40:38.656Z,12.31
2022-09-21T12:41:38.615Z,12.34
2022-09-21T12:42:38.643Z,12.39
2022-09-21T12:43:38.683Z,12.34
2022-09-21T12:44:40.753Z,12.3
2022-09-21T12:45:38.805Z,12.23
2022-09-21T12:46:38.783Z,12.19
2022-09-21T12:47:38.825Z,12.21
2022-09-21T12:48:38.870Z,12.19
2022-09-21T12:49:38.877Z,12.19
2022-09-21T12:50:38.917Z,12.2
2022-09-21T12:51:38.944Z,12.27
2022-09-21T12:52:38.979Z,12.2
2022-09-21T12:53:39.018Z,12.28
2022-09-21T12:54:40.552Z,12.31
2022-09-21T12:55:39.077Z,12.26
2022-09-21T12:56:39.113Z,12.26
2022-09-21T12:57:53.627Z,12.27
2022-09-21T12:58:39.171Z,12.25
2022-09-21T12:59:39.210Z,12.31
2022-09-21T13:00:39.241Z,12.27
2022-09-21T13:01:39.378Z,12.25
2022-09-21T13:02:39.455Z,12.38
2022-09-21T13:03:39.340Z,12.57
2022-09-21T13:04:39.379Z,12.66
2022-09-21T13:05:39.415Z,12.55
2022-09-21T13:06:39.441Z,12.56
2022-09-21T13:07:39.464Z,12.56
2022-09-21T13:08:39.525Z,12.66
2022-09-21T13:09:39.535Z,12.72
2022-09-21T13:10:39.567Z,12.68
2022-09-21T13:11:39.592Z,12.62
2022-09-21T13:12:39.634Z,12.7
2022-09-21T13:13:39.660Z,12.65
2022-09-21T13:14:39.695Z,12.69